Jarrell, Texas
Current Conditions -  °F | °C
As of 4:35 AM on Thursday 18 Dec 2014 (Local Time) from KGTU Reporting Station
Overcast Overcast  
Wind Chill: 46°   Ceiling: 200
Heat Index: 48°   Visibility: 0.75mi
Dew Point: 46°   Wind: 5mph
Humidity: 93%   Direction: 20°NNE
Pressure: 30.08"   Gusts: NA
Location:  30.82°N, 97.6°W
Report Text: KGTU 181035Z 02004KT 3/4SM OVC002 09/08 A3008 RMK AO1
Loading
Personal Weather Stations






























Interactive Weather Map New forecast layout! Learn more

10-Day Weather Forecast

Advertisements
Track Severe Weather on mobile